Crisfield, Maryland
Current Conditions -  °F | °C
As of 8:08 AM on Wednesday 22 Oct 2014 (Local Time) from KWAL Reporting Station
Haze Haze  
Wind Chill: 56°   Ceiling: 600
Heat Index: 56°   Visibility: 3mi
Dew Point: 54°   Wind: 7mph
Humidity: 93%   Direction: 350°N
Pressure: 29.81"   Gusts: NA
Location:  37.98°N, 75.85°W
Report Text: KWAL 221208Z AUTO 35006KT 3SM BR OVC006 13/12 A2981 RMK AO2 CIG 005V009 T01330122
Loading
Personal Weather Stations






























Interactive Weather Map
Tropical Storm Tracking
New forecast layout! Learn more

10-Day Weather Forecast

Advertisements
Track Severe Weather on mobile